Time;durP1;ratioP1;P1;durP2;ratioP2;P2;SDS_P1;SDS_P2;PMS_P1;PMS_P2;Temp;Humidity;BMP_temperature;BMP_pressure;BME280_temperature;BME280_humidity;BME280_pressure;Samples;Min_cycle;Max_cycle;Signal;HPM_P1;HPM_P2
2022/02/16 00:02:05;;;;;;;;;;;;;;;29.01;54.27;100849.81;5075137;28;69488;-41
2022/02/16 00:04:38;;;;;;;;;;;;;;;29.07;55.56;100859.00;5072515;28;67156;-41
2022/02/16 00:07:07;;;;;;;;;;;;;;;29.12;56.55;100859.19;5068830;27;70178;-41
2022/02/16 00:09:37;;;;;;;;;;;;;;;29.17;56.89;100865.63;5075472;28;66535;-40
2022/02/16 00:12:08;;;;;;;;;;;;;;;29.18;57.23;100855.66;5077870;28;70392;-41
2022/02/16 00:14:38;;;;;;;;;;;;;;;29.29;58.17;100868.53;5080165;27;66528;-40
2022/02/16 00:17:08;;;;;;;;;;;;;;;29.32;58.67;100873.50;5077385;28;69738;-47
2022/02/16 00:19:38;;;;;;;;;;;;;;;29.32;59.81;100878.09;5073645;28;67212;-40
2022/02/16 00:22:08;;;;;;;;;;;;;;;29.32;61.01;100870.81;5073073;27;70385;-40
2022/02/16 00:24:38;;;;;;;;;;;;;;;29.34;61.05;100884.13;5074083;27;65961;-41
2022/02/16 00:27:09;;;;;;;;;;;;;;;29.41;61.68;100879.50;5060855;28;70607;-40
2022/02/16 00:29:39;;;;;;;;;;;;;;;29.46;61.64;100881.59;5070193;28;66431;-46
2022/02/16 00:32:09;;;;;;;;;;;;;;;29.50;59.31;100880.13;5061419;28;69323;-41
2022/02/16 00:34:40;;;;;;;;;;;;;;;29.56;59.41;100884.69;5074970;28;65759;-41
2022/02/16 00:37:10;;;;;;;;;;;;;;;29.63;58.74;100880.13;5083438;27;69361;-40
2022/02/16 00:39:41;;;;;;;;;;;;;;;29.67;60.74;100884.09;5080376;28;66572;-41
2022/02/16 00:42:11;;;;;;;;;;;;;;;29.75;60.44;100888.41;5072594;28;70010;-40
2022/02/16 00:44:41;;;;;;;;;;;;;;;29.80;58.81;100885.91;5078277;28;66990;-41
2022/02/16 00:47:12;;;;;;;;;;;;;;;29.84;59.46;100887.97;5074457;28;69501;-40
2022/02/16 00:49:42;;;;;;;;;;;;;;;29.91;60.01;100887.13;5079547;28;66351;-41
2022/02/16 00:52:13;;;;;;;;;;;;;;;29.95;59.65;100888.34;5095091;27;70943;-41
2022/02/16 00:54:44;;;;;;;;;;;;;;;29.99;59.19;100897.69;5071047;28;65411;-39
2022/02/16 00:57:16;;;;;;;;;;;;;;;30.02;58.65;100894.56;5097524;27;70023;-40
2022/02/16 00:59:46;;;;;;;;;;;;;;;30.05;58.76;100894.97;5076992;28;66723;-40
2022/02/16 01:02:16;;;;;;;;;;;;;;;30.09;58.67;100884.56;5073040;28;70617;-41
2022/02/16 01:04:48;;;;;;;;;;;;;;;30.12;57.80;100894.94;5079578;28;66144;-41
2022/02/16 01:07:18;;;;;;;;;;;;;;;30.14;57.54;100898.25;5079813;28;69236;-41
2022/02/16 01:09:48;;;;;;;;;;;;;;;30.18;57.03;100899.50;5078453;27;65706;-40
2022/02/16 01:12:18;;;;;;;;;;;;;;;30.19;57.27;100901.13;5082090;27;70251;-40
2022/02/16 01:14:49;;;;;;;;;;;;;;;30.20;56.65;100902.81;5080459;28;66935;-40
2022/02/16 01:17:21;;;;;;;;;;;;;;;30.24;56.41;100904.06;5075426;27;70725;-40
2022/02/16 01:19:59;;;;;;;;;;;;;;;30.26;55.89;100906.56;5070567;28;67203;-40
2022/02/16 01:22:32;;;;;;;;;;;;;;;30.28;55.85;100909.88;5096505;27;69433;-39
2022/02/16 01:25:09;;;;;;;;;;;;;;;30.31;55.32;100908.63;5061155;28;66480;-40
2022/02/16 01:27:41;;;;;;;;;;;;;;;30.32;55.64;100910.28;5059165;28;69769;-40
2022/02/16 01:30:12;;;;;;;;;;;;;;;30.34;55.15;100914.44;5075523;27;66447;-40
2022/02/16 01:33:11;;;;;;;;;;;;;;;30.37;55.97;100913.16;5061083;28;69440;-40
2022/02/16 01:35:49;;;;;;;;;;;;;;;30.40;55.50;100923.56;5095018;27;65713;-40
2022/02/16 01:38:18;;;;;;;;;;;;;;;30.41;56.03;100920.63;5081909;27;69981;-40
2022/02/16 01:40:56;;;;;;;;;;;;;;;30.43;55.83;100913.13;5058679;28;66536;-41
2022/02/16 01:43:26;;;;;;;;;;;;;;;30.46;55.07;100917.28;5077682;28;70190;-40
2022/02/16 01:45:56;;;;;;;;;;;;;;;30.47;55.09;100913.53;5081828;28;65951;-41
2022/02/16 01:48:26;;;;;;;;;;;;;;;30.48;54.89;100915.22;5046077;28;70763;-41
2022/02/16 01:50:56;;;;;;;;;;;;;;;30.50;54.86;100918.50;5073886;28;66343;-41
2022/02/16 01:53:41;;;;;;;;;;;;;;;30.52;55.12;100908.28;5055932;28;69064;-41
2022/02/16 01:56:13;;;;;;;;;;;;;;;30.54;54.54;100916.22;5071354;28;66343;-40
2022/02/16 01:58:45;;;;;;;;;;;;;;;30.55;54.74;100915.97;5079780;28;70086;-40
2022/02/16 02:01:15;;;;;;;;;;;;;;;30.58;54.83;100920.13;5092626;27;66736;-40
2022/02/16 02:04:01;;;;;;;;;;;;;;;30.59;54.32;100916.38;5075014;28;69845;-40
2022/02/16 02:06:32;;;;;;;;;;;;;;;30.60;54.76;100918.88;5077441;28;65313;-40
2022/02/16 02:09:02;;;;;;;;;;;;;;;30.62;54.24;100915.94;5064172;28;70013;-40
2022/02/16 02:11:33;;;;;;;;;;;;;;;30.64;54.49;100911.13;5071042;28;66537;-40
2022/02/16 02:14:12;;;;;;;;;;;;;;;30.65;54.53;100921.75;5098222;27;70186;-40
2022/02/16 02:17:00;;;;;;;;;;;;;;;30.66;54.50;100920.69;5079903;28;66300;-40
2022/02/16 02:19:31;;;;;;;;;;;;;;;30.69;54.50;100922.97;5076496;28;70271;-40
2022/02/16 02:22:01;;;;;;;;;;;;;;;30.70;54.23;100924.66;5095235;27;66449;-41
2022/02/16 02:24:32;;;;;;;;;;;;;;;30.71;54.32;100931.72;5064529;28;70226;-41
2022/02/16 02:27:02;;;;;;;;;;;;;;;30.73;53.65;100924.22;5076552;28;66013;-41
2022/02/16 02:29:32;;;;;;;;;;;;;;;30.75;53.89;100921.25;5079777;27;70778;-41
2022/02/16 02:32:05;;;;;;;;;;;;;;;30.78;53.90;100920.00;5070645;28;65747;-41
2022/02/16 02:34:35;;;;;;;;;;;;;;;30.79;53.44;100927.09;5095878;27;69680;-41
2022/02/16 02:37:07;;;;;;;;;;;;;;;30.80;53.46;100921.47;5079173;28;65326;-41
2022/02/16 02:39:39;;;;;;;;;;;;;;;30.82;53.50;100916.69;5077408;28;70112;-40
2022/02/16 02:42:09;;;;;;;;;;;;;;;30.84;53.77;100924.56;5074920;28;66142;-43
2022/02/16 02:44:42;;;;;;;;;;;;;;;30.86;53.46;100917.06;5046951;28;70034;-41
2022/02/16 02:47:13;;;;;;;;;;;;;;;30.88;53.15;100925.81;5094323;27;66029;-41
2022/02/16 02:49:45;;;;;;;;;;;;;;;30.89;53.45;100924.75;5093674;27;69044;-40
2022/02/16 02:52:15;;;;;;;;;;;;;;;30.90;53.29;100912.88;5078572;28;66449;-41
2022/02/16 02:54:45;;;;;;;;;;;;;;;30.94;53.01;100927.63;5061126;28;71133;-43
2022/02/16 02:57:16;;;;;;;;;;;;;;;30.95;53.26;100915.72;5077273;28;65556;-41
2022/02/16 02:59:46;;;;;;;;;;;;;;;30.96;52.57;100912.00;5075085;28;70264;-39
2022/02/16 03:02:16;;;;;;;;;;;;;;;31.00;52.41;100906.94;5080110;28;66878;-40
2022/02/16 03:04:46;;;;;;;;;;;;;;;31.02;52.88;100910.28;5079121;28;68956;-40
2022/02/16 03:07:16;;;;;;;;;;;;;;;31.03;52.32;100907.34;5077396;28;66365;-40
2022/02/16 03:09:46;;;;;;;;;;;;;;;31.04;52.55;100898.19;5060991;28;70075;-40
2022/02/16 03:12:16;;;;;;;;;;;;;;;31.06;52.05;100890.63;5080298;28;66889;-40
2022/02/16 03:14:46;;;;;;;;;;;;;;;31.10;52.43;100891.03;5067154;28;69213;-47
2022/02/16 03:17:17;;;;;;;;;;;;;;;31.11;52.00;100893.50;5081918;27;66509;-41
2022/02/16 03:19:47;;;;;;;;;;;;;;;31.14;52.35;100895.78;5072928;28;70256;-41
2022/02/16 03:22:19;;;;;;;;;;;;;;;31.16;51.76;100904.53;5074320;28;66393;-40
2022/02/16 03:24:49;;;;;;;;;;;;;;;31.20;51.98;100898.66;5078497;28;69215;-41
2022/02/16 03:27:21;;;;;;;;;;;;;;;31.22;52.15;100886.53;5075416;28;65475;-40
2022/02/16 03:30:01;;;;;;;;;;;;;;;31.24;51.95;100883.63;5076206;28;70164;-41
2022/02/16 03:32:37;;;;;;;;;;;;;;;31.26;51.50;100885.06;5077962;28;65635;-40
2022/02/16 03:35:08;;;;;;;;;;;;;;;31.28;51.90;100882.13;5075845;28;68781;-40
2022/02/16 03:37:38;;;;;;;;;;;;;;;31.30;51.62;100877.31;5079262;28;65453;-40
2022/02/16 03:40:08;;;;;;;;;;;;;;;31.32;51.68;100880.63;5075535;28;70346;-41
2022/02/16 03:42:39;;;;;;;;;;;;;;;31.33;51.20;100869.56;5095058;27;65702;-40
2022/02/16 03:45:09;;;;;;;;;;;;;;;31.36;51.72;100865.59;5068944;27;68622;-41
2022/02/16 03:47:49;;;;;;;;;;;;;;;31.37;51.67;100856.41;5091001;27;66191;-40
2022/02/16 03:50:20;;;;;;;;;;;;;;;31.39;51.45;100851.59;5093332;27;70389;-41
2022/02/16 03:52:52;;;;;;;;;;;;;;;31.41;51.32;100849.50;5068986;28;66949;-41
2022/02/16 03:55:23;;;;;;;;;;;;;;;31.43;51.26;100847.41;5073567;28;70079;-41
2022/02/16 03:57:54;;;;;;;;;;;;;;;31.46;50.84;100841.53;5074764;28;66362;-41
2022/02/16 04:00:24;;;;;;;;;;;;;;;31.49;51.18;100846.50;5091878;27;69296;-41
2022/02/16 04:02:58;;;;;;;;;;;;;;;31.50;51.17;100836.47;5071449;28;66576;-43
2022/02/16 04:05:29;;;;;;;;;;;;;;;31.54;51.25;100848.53;5077854;28;70576;-42
2022/02/16 04:07:59;;;;;;;;;;;;;;;31.57;51.33;100838.06;5060816;28;65034;-42
2022/02/16 04:10:29;;;;;;;;;;;;;;;31.57;50.88;100832.63;5094198;27;70466;-40
2022/02/16 04:13:00;;;;;;;;;;;;;;;31.59;50.48;100821.53;5079511;27;66310;-41
2022/02/16 04:15:30;;;;;;;;;;;;;;;31.60;50.47;100815.91;5061391;28;70919;-41
2022/02/16 04:18:06;;;;;;;;;;;;;;;31.63;50.90;100814.63;5069647;28;66705;-40
2022/02/16 04:20:36;;;;;;;;;;;;;;;31.64;50.71;100810.03;5068346;28;69172;-41
2022/02/16 04:23:09;;;;;;;;;;;;;;;31.65;51.00;100806.25;5075735;28;66195;-41
2022/02/16 04:25:40;;;;;;;;;;;;;;;31.65;50.49;100801.69;5076670;28;69696;-41
2022/02/16 04:28:11;;;;;;;;;;;;;;;31.68;50.46;100809.34;5078246;28;65400;-41
2022/02/16 04:30:42;;;;;;;;;;;;;;;31.71;50.41;100794.53;5061363;28;71234;-41
2022/02/16 04:33:12;;;;;;;;;;;;;;;31.73;50.70;100797.81;5092996;27;65552;-42
2022/02/16 04:35:44;;;;;;;;;;;;;;;31.76;50.61;100791.91;5078152;28;70768;-41
2022/02/16 04:38:14;;;;;;;;;;;;;;;31.66;50.65;100768.06;5068551;27;66054;-41
2022/02/16 04:40:44;;;;;;;;;;;;;;;31.79;50.69;100777.94;5075750;28;70402;-41
2022/02/16 04:43:15;;;;;;;;;;;;;;;31.81;50.56;100778.50;5078140;28;66201;-41
2022/02/16 04:45:45;;;;;;;;;;;;;;;31.81;50.16;100778.50;5093985;27;69787;-44
2022/02/16 04:48:16;;;;;;;;;;;;;;;31.82;50.20;100777.47;5078989;28;66563;-40
2022/02/16 04:50:46;;;;;;;;;;;;;;;31.82;50.63;100770.16;5078555;28;69498;-40
2022/02/16 04:53:19;;;;;;;;;;;;;;;31.84;50.15;100764.47;5069997;28;65369;-41
2022/02/16 04:55:50;;;;;;;;;;;;;;;31.85;50.15;100763.44;5076447;28;70586;-40
2022/02/16 04:58:20;;;;;;;;;;;;;;;31.86;50.18;100754.25;5074740;28;65638;-41
2022/02/16 05:00:50;;;;;;;;;;;;;;;31.90;49.99;100754.59;5090093;27;69755;-40
2022/02/16 05:03:26;;;;;;;;;;;;;;;31.91;50.36;100749.00;5076796;28;66287;-41
2022/02/16 05:05:57;;;;;;;;;;;;;;;31.93;50.33;100757.72;5076952;28;70092;-41
2022/02/16 05:08:28;;;;;;;;;;;;;;;31.95;49.97;100744.75;5076846;28;66476;-40
2022/02/16 05:10:58;;;;;;;;;;;;;;;31.97;50.38;100739.91;5072562;28;70122;-41
2022/02/16 05:14:03;;;;;;;;;;;;;;;31.99;50.14;100732.38;5072011;28;65526;-40
2022/02/16 05:16:36;;;;;;;;;;;;;;;32.00;50.33;100728.59;5075827;28;70371;-41
2022/02/16 05:19:07;;;;;;;;;;;;;;;32.02;49.99;100726.50;5080569;28;65420;-40
2022/02/16 05:21:43;;;;;;;;;;;;;;;32.04;49.99;100729.81;5078154;28;70288;-40
2022/02/16 05:24:18;;;;;;;;;;;;;;;32.07;49.97;100722.25;5097782;27;66259;-40
2022/02/16 05:26:51;;;;;;;;;;;;;;;32.07;50.16;100711.38;5063973;28;69839;-40
2022/02/16 05:29:21;;;;;;;;;;;;;;;32.08;49.82;100705.75;5098013;27;65339;-40
2022/02/16 05:31:58;;;;;;;;;;;;;;;32.10;50.32;100691.97;5072071;28;69643;-39
2022/02/16 05:34:29;;;;;;;;;;;;;;;32.10;49.95;100692.78;5081283;28;65545;-40
2022/02/16 05:36:59;;;;;;;;;;;;;;;32.13;50.31;100683.34;5080746;28;70344;-40
2022/02/16 05:39:30;;;;;;;;;;;;;;;32.15;50.06;100681.19;5090573;27;66601;-40
2022/02/16 05:42:03;;;;;;;;;;;;;;;32.17;49.65;100674.47;5079254;28;70696;-41
2022/02/16 05:44:36;;;;;;;;;;;;;;;32.20;50.14;100670.47;5080840;28;66363;-41
2022/02/16 05:47:07;;;;;;;;;;;;;;;32.23;49.81;100667.28;5094523;27;69372;-41
2022/02/16 05:49:37;;;;;;;;;;;;;;;32.25;50.09;100659.75;5079391;28;66088;-41
2022/02/16 05:52:08;;;;;;;;;;;;;;;32.25;49.88;100646.19;5071255;28;69729;-40
2022/02/16 05:54:39;;;;;;;;;;;;;;;32.27;49.98;100654.91;5076824;28;65402;-40
2022/02/16 05:57:09;;;;;;;;;;;;;;;32.28;49.73;100638.38;5091617;27;70779;-40
2022/02/16 05:59:39;;;;;;;;;;;;;;;32.30;50.15;100640.88;5061817;28;66716;-40
2022/02/16 06:02:10;;;;;;;;;;;;;;;32.32;49.70;100629.75;5079485;28;70576;-40
2022/02/16 06:04:41;;;;;;;;;;;;;;;32.35;49.75;100635.56;5064693;28;65354;-40
2022/02/16 06:07:11;;;;;;;;;;;;;;;32.36;49.70;100628.25;5078713;28;70349;-41
2022/02/16 06:09:41;;;;;;;;;;;;;;;32.38;49.52;100621.53;5057189;28;65000;-41
2022/02/16 06:12:11;;;;;;;;;;;;;;;32.40;49.66;100619.41;5081240;28;70643;-41
2022/02/16 06:14:41;;;;;;;;;;;;;;;32.41;49.51;100620.22;5073205;28;66416;-41
2022/02/16 06:17:13;;;;;;;;;;;;;;;32.42;49.56;100606.41;5096198;27;68723;-40
2022/02/16 06:19:48;;;;;;;;;;;;;;;32.42;49.83;100611.81;5094082;27;65244;-40
2022/02/16 06:22:20;;;;;;;;;;;;;;;32.44;49.41;100601.56;5080497;28;70390;-41
2022/02/16 06:24:50;;;;;;;;;;;;;;;32.46;49.77;100598.66;5080323;27;66224;-41
2022/02/16 06:27:20;;;;;;;;;;;;;;;32.47;49.37;100587.53;5095250;27;69951;-41
2022/02/16 06:29:51;;;;;;;;;;;;;;;32.49;49.68;100590.84;5062894;28;67410;-40
2022/02/16 06:32:35;;;;;;;;;;;;;;;32.52;49.63;100583.31;5097182;27;70789;-40
2022/02/16 06:35:06;;;;;;;;;;;;;;;32.54;49.48;100570.28;5089501;27;67241;-40
2022/02/16 06:37:36;;;;;;;;;;;;;;;32.56;49.48;100571.69;5081201;27;69824;-41
2022/02/16 06:40:09;;;;;;;;;;;;;;;32.58;49.54;100566.03;5076530;28;66697;-41
2022/02/16 06:42:43;;;;;;;;;;;;;;;32.60;49.41;100558.50;5096840;27;70369;-40
2022/02/16 06:45:16;;;;;;;;;;;;;;;32.61;49.25;100552.00;5096085;27;66499;-40
2022/02/16 06:47:49;;;;;;;;;;;;;;;32.62;49.80;100556.34;5072493;28;69766;-41
2022/02/16 06:50:20;;;;;;;;;;;;;;;32.63;49.65;100549.88;5095020;27;65913;-41
2022/02/16 06:52:55;;;;;;;;;;;;;;;32.64;49.76;100548.78;5078307;28;70536;-41
2022/02/16 06:55:25;;;;;;;;;;;;;;;32.63;49.61;100534.38;5059706;28;66530;-41
2022/02/16 06:57:58;;;;;;;;;;;;;;;32.65;49.31;100523.28;5090675;27;70619;-40
2022/02/16 07:00:50;;;;;;;;;;;;;;;32.65;49.46;100517.84;5061199;28;66813;-41
2022/02/16 07:03:36;;;;;;;;;;;;;;;32.66;49.60;100514.91;5070089;28;70162;-41
2022/02/16 07:06:30;;;;;;;;;;;;;;;32.67;49.64;100507.56;5071046;28;66525;-42
2022/02/16 07:09:18;;;;;;;;;;;;;;;32.67;49.66;100513.81;5071966;28;70788;-42
2022/02/16 07:12:09;;;;;;;;;;;;;;;32.69;49.75;100505.44;4995781;28;66263;-40
2022/02/16 07:14:47;;;;;;;;;;;;;;;32.68;49.54;100507.34;4995381;28;70466;-41
2022/02/16 07:17:18;;;;;;;;;;;;;;;32.70;49.61;100498.94;4993101;28;66135;-40
2022/02/16 07:19:48;;;;;;;;;;;;;;;32.71;49.34;100495.16;4980905;28;69793;-40
2022/02/16 07:22:24;;;;;;;;;;;;;;;32.72;49.44;100485.94;4995689;28;66935;-41
2022/02/16 07:24:54;;;;;;;;;;;;;;;32.75;49.47;100490.88;4989150;28;70517;-41
2022/02/16 07:27:24;;;;;;;;;;;;;;;32.77;49.54;100488.75;4996456;28;66612;-42
2022/02/16 07:29:55;;;;;;;;;;;;;;;32.81;49.43;100483.66;4995390;28;69326;-39
2022/02/16 07:32:26;;;;;;;;;;;;;;;32.84;49.28;100488.59;4996863;28;66445;-40
2022/02/16 07:34:56;;;;;;;;;;;;;;;32.86;49.13;100478.31;4995466;28;69612;-41
2022/02/16 07:37:28;;;;;;;;;;;;;;;32.89;49.28;100480.56;4979604;28;65964;-41
2022/02/16 07:39:59;;;;;;;;;;;;;;;32.92;49.24;100474.63;4995968;28;69604;-40
2022/02/16 07:42:30;;;;;;;;;;;;;;;32.96;48.96;100473.09;4977473;28;66598;-40
2022/02/16 07:45:23;;;;;;;;;;;;;;;33.00;49.05;100468.00;4985468;28;70762;-40
2022/02/16 07:47:55;;;;;;;;;;;;;;;33.03;48.93;100467.53;5005767;28;66194;-41
2022/02/16 07:50:27;;;;;;;;;;;;;;;33.07;48.86;100465.94;5076064;28;69132;-41
2022/02/16 07:53:20;;;;;;;;;;;;;;;33.09;48.90;100467.34;5064411;28;65586;-41
2022/02/16 07:55:52;;;;;;;;;;;;;;;33.13;48.88;100465.00;5091361;27;70520;-41
2022/02/16 07:58:24;;;;;;;;;;;;;;;33.17;48.69;100471.56;5090760;27;66797;-41
2022/02/16 08:00:54;;;;;;;;;;;;;;;33.20;48.58;100454.75;5078132;28;70323;-41
2022/02/16 08:03:26;;;;;;;;;;;;;;;33.25;48.60;100459.47;5092710;27;66324;-41
2022/02/16 08:05:56;;;;;;;;;;;;;;;33.29;48.62;100456.03;5076106;28;69826;-41
2022/02/16 08:08:27;;;;;;;;;;;;;;;33.32;48.58;100458.25;5089085;27;66258;-41
2022/02/16 08:10:58;;;;;;;;;;;;;;;33.35;48.37;100457.75;5076666;28;69975;-41
2022/02/16 08:13:30;;;;;;;;;;;;;;;33.40;48.56;100461.59;5092459;27;66657;-42
2022/02/16 08:16:21;;;;;;;;;;;;;;;33.44;48.47;100451.91;5071899;27;70632;-41
2022/02/16 08:19:01;;;;;;;;;;;;;;;33.49;48.27;100451.94;5074172;28;65464;-40
2022/02/16 08:21:34;;;;;;;;;;;;;;;33.53;48.20;100456.69;5078296;28;69946;-41
2022/02/16 08:24:05;;;;;;;;;;;;;;;33.56;48.15;100453.47;5061595;28;66249;-41
2022/02/16 08:26:35;;;;;;;;;;;;;;;33.50;48.14;100437.31;5077585;28;70707;-41
2022/02/16 08:29:05;;;;;;;;;;;;;;;33.64;47.97;100452.22;5077692;28;66568;-42
2022/02/16 08:31:36;;;;;;;;;;;;;;;33.67;48.03;100449.00;5055266;28;70339;-40
2022/02/16 08:34:38;;;;;;;;;;;;;;;33.72;47.76;100446.38;5068115;27;66714;-41
2022/02/16 08:37:17;;;;;;;;;;;;;;;33.76;47.74;100446.69;5078221;28;69870;-41
2022/02/16 08:39:48;;;;;;;;;;;;;;;33.81;47.81;100444.84;5079366;27;66387;-40
2022/02/16 08:42:17;;;;;;;;;;;;;;;33.85;47.76;100449.78;5070505;28;70022;-40
2022/02/16 08:44:47;;;;;;;;;;;;;;;33.90;47.55;100452.59;5057619;28;66037;-40
2022/02/16 08:47:17;;;;;;;;;;;;;;;33.94;47.73;100448.31;5070719;28;69503;-41
2022/02/16 08:49:47;;;;;;;;;;;;;;;33.98;47.33;100438.56;5057435;28;65267;-41
2022/02/16 08:52:17;;;;;;;;;;;;;;;34.02;47.60;100439.72;5068780;28;70128;-41
2022/02/16 08:54:47;;;;;;;;;;;;;;;34.06;47.16;100440.88;5071342;27;66487;-42
2022/02/16 08:57:19;;;;;;;;;;;;;;;34.09;47.13;100445.81;5073815;28;69236;-41
2022/02/16 08:59:49;;;;;;;;;;;;;;;34.14;47.19;100434.97;5097296;27;66628;-41
2022/02/16 09:02:19;;;;;;;;;;;;;;;34.19;47.08;100437.78;5081982;28;70378;-41
2022/02/16 09:04:49;;;;;;;;;;;;;;;34.23;47.08;100436.16;5079855;28;66333;-40
2022/02/16 09:07:28;;;;;;;;;;;;;;;34.28;46.84;100442.78;5091431;27;69755;-40
2022/02/16 09:09:59;;;;;;;;;;;;;;;34.32;46.77;100433.00;5082600;28;66657;-40
2022/02/16 09:12:29;;;;;;;;;;;;;;;34.36;46.81;100436.88;5081590;27;70282;-41
2022/02/16 09:14:59;;;;;;;;;;;;;;;34.40;46.80;100435.28;5082226;27;67310;-41
2022/02/16 09:17:30;;;;;;;;;;;;;;;34.44;46.71;100439.16;5078694;28;69002;-40
2022/02/16 09:20:00;;;;;;;;;;;;;;;34.49;46.52;100441.91;5079600;28;66835;-40
2022/02/16 09:22:31;;;;;;;;;;;;;;;34.53;46.62;100437.63;5082119;28;70603;-41
2022/02/16 09:25:01;;;;;;;;;;;;;;;34.57;46.60;100435.22;5080818;28;65443;-41
2022/02/16 09:27:31;;;;;;;;;;;;;;;34.62;46.41;100443.44;5082494;28;70192;-42
2022/02/16 09:30:01;;;;;;;;;;;;;;;34.65;46.36;100434.75;5082552;28;66854;-41
2022/02/16 09:32:32;;;;;;;;;;;;;;;34.67;46.02;100433.44;5057859;28;69961;-40
2022/02/16 09:35:03;;;;;;;;;;;;;;;34.69;46.41;100438.63;5080386;28;65547;-40
2022/02/16 09:37:33;;;;;;;;;;;;;;;34.72;46.19;100434.56;5075972;28;70110;-41
2022/02/16 09:40:04;;;;;;;;;;;;;;;34.60;45.89;100424.66;5087406;27;65563;-41
2022/02/16 09:42:36;;;;;;;;;;;;;;;34.76;46.03;100450.13;5082294;28;70266;-41
2022/02/16 09:45:06;;;;;;;;;;;;;;;34.77;46.37;100445.50;5082076;28;66726;-42
2022/02/16 09:47:39;;;;;;;;;;;;;;;34.78;45.90;100447.97;5076891;28;70098;-40
2022/02/16 09:50:11;;;;;;;;;;;;;;;34.81;46.13;100457.53;5080176;28;66127;-40
2022/02/16 09:52:42;;;;;;;;;;;;;;;34.83;46.41;100455.38;5078104;28;69641;-41
2022/02/16 09:55:12;;;;;;;;;;;;;;;34.83;46.09;100455.38;5079011;27;66716;-41
2022/02/16 09:57:42;;;;;;;;;;;;;;;34.83;46.26;100460.84;5076934;28;71298;-41
2022/02/16 10:00:15;;;;;;;;;;;;;;;34.84;46.11;100462.47;5077996;27;66046;-41
2022/02/16 10:02:46;;;;;;;;;;;;;;;34.82;46.36;100464.63;5094703;27;69741;-41
2022/02/16 10:05:17;;;;;;;;;;;;;;;34.85;45.93;100464.09;5078480;28;65973;-41
2022/02/16 10:07:49;;;;;;;;;;;;;;;34.84;46.36;100468.75;5078061;28;68916;-40
2022/02/16 10:10:24;;;;;;;;;;;;;;;34.85;46.04;100469.56;5075210;27;65915;-40
2022/02/16 10:12:55;;;;;;;;;;;;;;;34.84;45.93;100468.75;5076569;28;69134;-41
2022/02/16 10:15:40;;;;;;;;;;;;;;;34.83;45.85;100469.00;5075620;27;66883;-41
2022/02/16 10:18:14;;;;;;;;;;;;;;;34.82;46.09;100470.06;5076739;27;69270;-41
2022/02/16 10:20:46;;;;;;;;;;;;;;;34.82;46.13;100464.63;5080461;28;66455;-41
2022/02/16 10:23:18;;;;;;;;;;;;;;;34.81;45.86;100463.00;5080016;28;70009;-41
2022/02/16 10:25:49;;;;;;;;;;;;;;;34.81;45.85;100468.44;5079535;28;65954;-41
2022/02/16 10:28:22;;;;;;;;;;;;;;;34.81;46.17;100466.53;5070326;27;68882;-41
2022/02/16 10:31:09;;;;;;;;;;;;;;;34.80;46.00;100472.22;5064863;28;65586;-41
2022/02/16 10:33:43;;;;;;;;;;;;;;;34.77;46.39;100473.59;5077375;28;70248;-41
2022/02/16 10:36:14;;;;;;;;;;;;;;;34.59;46.69;100474.75;5072161;28;65593;-39
2022/02/16 10:39:02;;;;;;;;;;;;;;;34.38;47.09;100481.84;5077467;28;69932;-41
2022/02/16 10:41:41;;;;;;;;;;;;;;;34.13;47.62;100481.50;5073924;27;65686;-40
2022/02/16 10:44:23;;;;;;;;;;;;;;;33.97;47.91;100491.34;5075861;27;69359;-41
2022/02/16 10:47:12;;;;;;;;;;;;;;;33.87;48.31;100492.00;5093943;27;67022;-39
2022/02/16 10:49:47;;;;;;;;;;;;;;;33.76;48.72;100492.94;5079302;28;70111;-40
2022/02/16 10:52:21;;;;;;;;;;;;;;;33.70;48.87;100496.66;5078023;28;66739;-41
2022/02/16 10:54:58;;;;;;;;;;;;;;;33.62;49.07;100495.16;5081885;27;69891;-41
2022/02/16 10:57:29;;;;;;;;;;;;;;;33.55;49.36;100494.53;5072953;28;66350;-42
2022/02/16 10:59:59;;;;;;;;;;;;;;;33.51;49.42;100504.19;5076701;27;69944;-41
2022/02/16 11:02:30;;;;;;;;;;;;;;;33.45;49.72;100510.63;5078478;28;64953;-41
2022/02/16 11:05:01;;;;;;;;;;;;;;;33.36;49.80;100519.19;5078231;28;69050;-41
2022/02/16 11:07:32;;;;;;;;;;;;;;;33.27;49.90;100509.00;5062293;28;67438;-41
2022/02/16 11:10:03;;;;;;;;;;;;;;;33.25;50.39;100511.94;5077582;28;70091;-41
2022/02/16 11:12:33;;;;;;;;;;;;;;;33.16;51.02;100507.97;5076821;28;65061;-41
2022/02/16 11:15:04;;;;;;;;;;;;;;;33.11;50.86;100510.59;5081164;28;69022;-41
2022/02/16 11:17:34;;;;;;;;;;;;;;;33.07;51.01;100514.84;5077007;28;66818;-40
2022/02/16 11:20:18;;;;;;;;;;;;;;;33.00;51.11;100519.63;5078363;28;69641;-42
2022/02/16 11:22:54;;;;;;;;;;;;;;;32.97;51.23;100523.63;5092140;27;66075;-41
2022/02/16 11:25:32;;;;;;;;;;;;;;;32.89;51.23;100526.75;5080435;28;70877;-41
2022/02/16 11:28:05;;;;;;;;;;;;;;;32.82;51.33;100529.63;5077943;27;66602;-42
2022/02/16 11:30:36;;;;;;;;;;;;;;;32.77;51.84;100532.22;5076660;28;69721;-40
2022/02/16 11:33:20;;;;;;;;;;;;;;;32.73;52.25;100536.47;5075828;28;66050;-41
2022/02/16 11:35:54;;;;;;;;;;;;;;;32.71;52.07;100538.63;5071142;28;70778;-40
2022/02/16 11:38:25;;;;;;;;;;;;;;;32.66;52.48;100546.66;5075043;28;65184;-41
2022/02/16 11:40:56;;;;;;;;;;;;;;;32.63;52.51;100552.56;5074531;27;69220;-41
2022/02/16 11:43:47;;;;;;;;;;;;;;;32.58;53.30;100553.28;5088334;27;65629;-41
2022/02/16 11:46:35;;;;;;;;;;;;;;;32.52;54.47;100556.16;5069378;28;70682;-42
2022/02/16 11:49:06;;;;;;;;;;;;;;;32.46;55.69;100564.19;5074158;28;66185;-41
2022/02/16 11:51:37;;;;;;;;;;;;;;;32.39;56.57;100566.16;5078696;28;68917;-43
2022/02/16 11:54:26;;;;;;;;;;;;;;;32.43;56.16;100575.50;5075826;28;66282;-42
2022/02/16 11:56:56;;;;;;;;;;;;;;;32.24;57.00;100561.22;5095510;27;70185;-39
2022/02/16 11:59:30;;;;;;;;;;;;;;;32.30;57.20;100592.03;5073859;28;66044;-41
2022/02/16 12:02:06;;;;;;;;;;;;;;;32.23;57.32;100592.16;5080685;28;69676;-40
2022/02/16 12:04:53;;;;;;;;;;;;;;;32.19;57.67;100598.28;5069664;28;66291;-42
2022/02/16 12:07:28;;;;;;;;;;;;;;;32.15;57.46;100594.38;5074085;28;70575;-42
2022/02/16 12:10:19;;;;;;;;;;;;;;;32.11;57.61;100601.34;5073941;28;65355;-42
2022/02/16 12:12:49;;;;;;;;;;;;;;;32.06;58.02;100602.03;5073298;28;68797;-41
2022/02/16 12:15:39;;;;;;;;;;;;;;;32.03;57.78;100613.38;5087035;27;65572;-41
2022/02/16 12:18:14;;;;;;;;;;;;;;;31.99;58.90;100609.47;5079656;28;69821;-42
2022/02/16 12:20:49;;;;;;;;;;;;;;;31.94;58.61;100618.31;5062636;28;67179;-41
2022/02/16 12:23:25;;;;;;;;;;;;;;;31.94;58.38;100621.03;5071905;28;69665;-40
2022/02/16 12:26:07;;;;;;;;;;;;;;;31.90;58.96;100627.09;5073410;28;65629;-42
2022/02/16 12:28:47;;;;;;;;;;;;;;;31.87;59.03;100620.25;5081107;28;69984;-42
2022/02/16 12:31:19;;;;;;;;;;;;;;;31.84;59.09;100628.88;5095337;27;65792;-42
2022/02/16 12:34:06;;;;;;;;;;;;;;;31.82;58.85;100631.00;5066163;28;70306;-41
2022/02/16 12:36:39;;;;;;;;;;;;;;;31.77;58.72;100630.88;5069809;28;66638;-41
2022/02/16 12:39:10;;;;;;;;;;;;;;;31.73;58.57;100635.09;5081245;28;69816;-42
2022/02/16 12:41:42;;;;;;;;;;;;;;;31.70;58.94;100635.56;5072366;27;66228;-42
2022/02/16 12:44:15;;;;;;;;;;;;;;;31.67;58.90;100633.31;5044432;28;69592;-41
2022/02/16 12:46:48;;;;;;;;;;;;;;;31.43;58.78;100614.28;5092686;27;66979;-40
2022/02/16 12:49:21;;;;;;;;;;;;;;;31.61;59.27;100649.44;5082191;28;68757;-42
2022/02/16 12:51:51;;;;;;;;;;;;;;;31.58;58.86;100649.91;5081271;27;66494;-42
2022/02/16 12:54:23;;;;;;;;;;;;;;;31.52;59.02;100655.44;5080478;28;68994;-42
2022/02/16 12:56:57;;;;;;;;;;;;;;;31.50;59.37;100663.78;5085393;27;66734;-42
2022/02/16 12:59:28;;;;;;;;;;;;;;;31.48;59.79;100663.22;5086096;28;70299;-40
2022/02/16 13:02:16;;;;;;;;;;;;;;;31.44;59.43;100670.13;5075978;27;66428;-40
2022/02/16 13:04:53;;;;;;;;;;;;;;;31.41;59.40;100676.00;5074568;27;69355;-41
2022/02/16 13:07:31;;;;;;;;;;;;;;;31.40;59.41;100674.38;5086036;27;65675;-41